createdAt,value
2018-08-03T00:00:40.962Z,22.80
2018-08-03T00:03:09.035Z,22.90
2018-08-03T00:05:37.089Z,22.90
2018-08-03T00:08:05.179Z,23.00
2018-08-03T00:10:33.245Z,22.90
2018-08-03T00:13:01.315Z,22.80
2018-08-03T00:15:29.379Z,22.70
2018-08-03T00:17:57.457Z,22.60
2018-08-03T00:20:25.529Z,22.60
2018-08-03T00:22:53.589Z,22.60
2018-08-03T00:25:21.882Z,22.60
2018-08-03T00:27:49.894Z,22.60
2018-08-03T00:30:18.001Z,22.50
2018-08-03T00:32:46.073Z,22.50
2018-08-03T00:35:14.154Z,22.50
2018-08-03T00:37:42.249Z,22.40
2018-08-03T00:40:10.304Z,22.40
2018-08-03T00:42:38.404Z,22.40
2018-08-03T00:45:06.531Z,22.30
2018-08-03T00:47:34.937Z,22.30
2018-08-03T00:50:03.031Z,22.30
2018-08-03T00:52:31.099Z,22.30
2018-08-03T00:54:59.417Z,22.30
2018-08-03T00:57:27.489Z,22.40
2018-08-03T00:59:55.575Z,22.50
2018-08-03T01:02:23.617Z,22.40
2018-08-03T01:07:19.664Z,22.30
2018-08-03T01:09:47.698Z,22.30
2018-08-03T01:12:15.730Z,22.30
2018-08-03T01:14:44.064Z,22.30
2018-08-03T01:17:12.147Z,22.20
2018-08-03T01:19:40.199Z,22.20
2018-08-03T01:22:08.307Z,22.20
2018-08-03T01:24:36.431Z,22.30
2018-08-03T01:27:04.521Z,22.40
2018-08-03T01:29:32.601Z,22.40
2018-08-03T01:32:00.721Z,22.30
2018-08-03T01:34:28.801Z,22.30
2018-08-03T01:36:56.873Z,22.20
2018-08-03T01:39:24.957Z,22.20
2018-08-03T01:41:53.026Z,22.10
2018-08-03T01:44:21.101Z,22.00
2018-08-03T01:46:49.151Z,22.00
2018-08-03T01:49:17.204Z,22.10
2018-08-03T01:51:45.256Z,22.20
2018-08-03T01:56:41.197Z,22.20
2018-08-03T01:59:09.345Z,22.20
2018-08-03T02:01:37.364Z,22.30
2018-08-03T02:04:05.441Z,22.30
2018-08-03T02:06:33.534Z,22.30
2018-08-03T02:09:01.596Z,22.30
2018-08-03T02:11:30.111Z,22.20
2018-08-03T02:13:58.147Z,22.20
2018-08-03T02:16:26.270Z,22.20
2018-08-03T02:18:54.739Z,22.20
2018-08-03T02:21:22.767Z,22.20
2018-08-03T02:23:50.835Z,22.20
2018-08-03T02:26:18.916Z,22.30
2018-08-03T02:28:47.045Z,22.40
2018-08-03T02:31:15.192Z,22.40
2018-08-03T02:33:43.249Z,22.30
2018-08-03T02:36:11.304Z,22.30
2018-08-03T02:38:39.438Z,22.30
2018-08-03T02:41:07.581Z,22.30
2018-08-03T02:43:35.619Z,22.20
2018-08-03T02:46:03.664Z,22.40
2018-08-03T02:48:31.728Z,22.50
2018-08-03T02:50:59.813Z,22.40
2018-08-03T02:53:29.032Z,22.30
2018-08-03T02:55:57.084Z,22.20
2018-08-03T02:58:25.103Z,22.20
2018-08-03T03:00:53.131Z,22.20
2018-08-03T03:03:21.242Z,22.10
2018-08-03T03:05:49.322Z,22.00
2018-08-03T03:08:17.436Z,22.00
2018-08-03T03:13:13.389Z,22.00
2018-08-03T03:15:41.443Z,22.10
2018-08-03T03:18:09.487Z,22.10
2018-08-03T03:20:37.540Z,22.00
2018-08-03T03:23:05.633Z,22.00
2018-08-03T03:25:33.725Z,22.00
2018-08-03T03:28:01.791Z,22.00
2018-08-03T03:30:29.916Z,22.10
2018-08-03T03:32:57.988Z,22.00
2018-08-03T03:35:26.068Z,21.80
2018-08-03T03:37:54.129Z,22.00
2018-08-03T03:40:22.379Z,22.00
2018-08-03T03:42:50.517Z,22.10
2018-08-03T03:45:18.606Z,22.00
2018-08-03T03:47:46.640Z,22.00
2018-08-03T03:50:14.755Z,22.00
2018-08-03T03:52:42.862Z,21.80
2018-08-03T03:55:10.985Z,21.80
2018-08-03T03:57:39.047Z,21.90
2018-08-03T04:00:07.900Z,21.90
2018-08-03T04:02:36.124Z,22.00
2018-08-03T04:05:04.589Z,22.00
2018-08-03T04:07:32.733Z,22.00
2018-08-03T04:10:00.783Z,22.10
2018-08-03T04:12:28.842Z,22.10
2018-08-03T04:14:57.123Z,22.00
2018-08-03T04:17:25.316Z,21.90
2018-08-03T04:19:53.426Z,21.80
2018-08-03T04:22:21.443Z,21.90
2018-08-03T04:27:17.367Z,22.00
2018-08-03T04:32:13.359Z,22.10
2018-08-03T04:34:41.447Z,22.10
2018-08-03T04:37:09.697Z,22.20
2018-08-03T04:39:37.727Z,22.20
2018-08-03T04:42:05.792Z,22.20
2018-08-03T04:44:33.884Z,22.20
2018-08-03T04:47:01.954Z,22.20
2018-08-03T04:49:30.280Z,22.20
2018-08-03T04:51:58.381Z,22.20
2018-08-03T04:54:26.447Z,22.30
2018-08-03T04:56:54.551Z,22.30
2018-08-03T04:59:22.616Z,22.30
2018-08-03T05:01:50.934Z,22.30
2018-08-03T05:04:19.418Z,22.30
2018-08-03T05:06:47.583Z,22.50
2018-08-03T05:09:15.715Z,22.50
2018-08-03T05:11:43.861Z,22.50
2018-08-03T05:14:12.084Z,22.60
2018-08-03T05:16:40.178Z,22.50
2018-08-03T05:19:08.315Z,22.50
2018-08-03T05:21:36.481Z,22.50
2018-08-03T05:24:04.586Z,22.70
2018-08-03T05:26:32.783Z,22.80
2018-08-03T05:29:01.003Z,22.90
2018-08-03T05:31:29.027Z,22.90
2018-08-03T05:33:57.222Z,22.80
2018-08-03T05:36:25.493Z,22.80
2018-08-03T05:38:53.603Z,22.90
2018-08-03T05:41:21.711Z,23.00
2018-08-03T05:43:49.890Z,23.10
2018-08-03T05:46:18.097Z,23.00
2018-08-03T05:48:46.208Z,23.00
2018-08-03T05:53:42.585Z,23.10
2018-08-03T05:56:10.782Z,23.20
2018-08-03T05:58:38.959Z,23.20
2018-08-03T06:01:07.632Z,23.20
2018-08-03T06:03:35.867Z,23.30
2018-08-03T06:08:31.997Z,23.40
2018-08-03T06:11:00.173Z,23.40
2018-08-03T06:13:29.022Z,23.50
2018-08-03T06:15:57.181Z,23.60
2018-08-03T06:18:25.318Z,23.60
2018-08-03T06:20:53.652Z,23.60
2018-08-03T06:23:21.846Z,23.60
2018-08-03T06:25:49.981Z,23.60
2018-08-03T06:28:18.120Z,23.70
2018-08-03T06:30:46.252Z,23.80
2018-08-03T06:33:14.408Z,23.80
2018-08-03T06:35:42.563Z,23.80
2018-08-03T06:38:10.751Z,23.90
2018-08-03T06:40:38.956Z,24.00
2018-08-03T06:43:07.200Z,24.10
2018-08-03T06:45:35.302Z,24.10
2018-08-03T06:48:03.380Z,24.10
2018-08-03T06:50:31.549Z,24.10
2018-08-03T06:52:59.725Z,24.10
2018-08-03T06:55:27.811Z,24.10
2018-08-03T06:57:55.867Z,24.10
2018-08-03T07:00:23.956Z,24.20
2018-08-03T07:02:52.074Z,24.20
2018-08-03T07:05:20.113Z,24.40
2018-08-03T07:07:48.209Z,24.40
2018-08-03T07:10:16.331Z,24.40
2018-08-03T07:12:44.363Z,24.40
2018-08-03T07:15:12.483Z,24.40
2018-08-03T07:17:40.546Z,24.50
2018-08-03T07:20:08.654Z,24.40
2018-08-03T07:22:36.704Z,24.30
2018-08-03T07:25:05.172Z,24.50
2018-08-03T07:27:33.272Z,24.50
2018-08-03T07:30:01.378Z,24.50
2018-08-03T07:32:29.490Z,24.60
2018-08-03T07:34:57.589Z,24.60
2018-08-03T07:37:25.699Z,24.80
2018-08-03T07:39:53.835Z,24.90
2018-08-03T07:42:21.902Z,24.90
2018-08-03T07:44:50.046Z,24.90
2018-08-03T07:47:18.126Z,25.10
2018-08-03T07:49:46.201Z,25.20
2018-08-03T07:52:14.275Z,25.30
2018-08-03T07:54:42.312Z,25.40
2018-08-03T07:57:10.432Z,25.40
2018-08-03T07:59:38.496Z,25.50
2018-08-03T08:02:06.923Z,25.50
2018-08-03T08:04:35.077Z,25.60
2018-08-03T08:07:03.131Z,25.60
2018-08-03T08:09:31.280Z,25.70
2018-08-03T08:11:59.319Z,25.70
2018-08-03T08:14:27.413Z,25.70
2018-08-03T08:16:55.564Z,25.80
2018-08-03T08:19:23.589Z,25.80
2018-08-03T08:21:51.680Z,25.80
2018-08-03T08:24:19.716Z,25.80
2018-08-03T08:26:47.818Z,25.90
2018-08-03T08:29:15.937Z,26.00
2018-08-03T08:31:44.009Z,26.00
2018-08-03T08:34:12.602Z,26.10
2018-08-03T08:36:40.634Z,26.20
2018-08-03T08:39:11.201Z,26.40
2018-08-03T08:41:39.324Z,26.50
2018-08-03T08:44:07.381Z,26.60
2018-08-03T08:46:35.998Z,26.70
2018-08-03T08:49:04.540Z,26.80
2018-08-03T08:51:32.652Z,27.00
2018-08-03T08:54:00.751Z,27.20
2018-08-03T08:56:29.033Z,27.40
2018-08-03T08:58:57.117Z,27.50
2018-08-03T09:01:25.236Z,27.70
2018-08-03T09:03:53.668Z,27.80
2018-08-03T09:06:21.744Z,28.00
2018-08-03T09:08:49.840Z,28.10
2018-08-03T09:11:17.904Z,28.30
2018-08-03T09:13:46.030Z,28.60
2018-08-03T09:16:14.159Z,28.70
2018-08-03T09:18:42.320Z,28.90
2018-08-03T09:21:10.398Z,29.10
2018-08-03T09:23:38.511Z,29.40
2018-08-03T09:26:06.584Z,29.90
2018-08-03T09:28:34.746Z,30.20
2018-08-03T09:31:02.887Z,30.40
2018-08-03T09:33:30.941Z,30.50
2018-08-03T09:35:58.978Z,30.70
2018-08-03T09:43:22.793Z,31.40
2018-08-03T09:45:50.886Z,31.20
2018-08-03T09:48:18.986Z,30.80
2018-08-03T09:50:47.058Z,31.10
2018-08-03T09:53:15.166Z,31.50
2018-08-03T09:55:43.223Z,31.50
2018-08-03T09:58:11.278Z,31.70
2018-08-03T10:00:45.255Z,31.70
2018-08-03T10:03:13.367Z,31.60
2018-08-03T10:05:41.420Z,31.90
2018-08-03T10:08:09.492Z,32.30
2018-08-03T10:10:37.574Z,32.60
2018-08-03T10:13:05.644Z,33.00
2018-08-03T10:15:33.782Z,32.90
2018-08-03T10:18:01.885Z,33.10
2018-08-03T10:20:29.985Z,32.90
2018-08-03T10:22:58.038Z,33.20
2018-08-03T10:25:26.122Z,33.60
2018-08-03T10:27:54.267Z,33.40
2018-08-03T10:30:22.361Z,33.40
2018-08-03T10:32:50.405Z,33.80
2018-08-03T10:35:18.464Z,34.10
2018-08-03T10:37:46.553Z,34.50
2018-08-03T10:40:14.653Z,34.40
2018-08-03T10:42:42.713Z,34.70
2018-08-03T10:45:10.724Z,34.90
2018-08-03T10:47:38.869Z,35.10
2018-08-03T10:50:07.009Z,35.00
2018-08-03T10:52:35.102Z,35.30
2018-08-03T10:55:03.761Z,35.20
2018-08-03T10:57:32.065Z,35.40
2018-08-03T11:00:00.451Z,35.90
2018-08-03T11:02:28.499Z,36.20
2018-08-03T11:04:56.609Z,36.20
2018-08-03T11:07:24.737Z,36.00
2018-08-03T11:09:53.324Z,36.10
2018-08-03T11:12:21.388Z,36.60
2018-08-03T11:14:49.482Z,37.20
2018-08-03T11:17:17.543Z,37.10
2018-08-03T11:19:45.644Z,37.20
2018-08-03T11:22:13.674Z,37.30
2018-08-03T11:24:41.724Z,36.90
2018-08-03T11:27:09.789Z,37.10
2018-08-03T11:29:37.895Z,37.10
2018-08-03T11:32:05.985Z,37.50
2018-08-03T11:34:34.041Z,37.60
2018-08-03T11:37:02.150Z,37.30
2018-08-03T11:39:30.261Z,37.80
2018-08-03T11:41:58.368Z,38.40
2018-08-03T11:44:26.406Z,38.60
2018-08-03T11:49:22.320Z,38.90
2018-08-03T11:51:50.408Z,38.90
2018-08-03T11:54:18.488Z,38.60
2018-08-03T11:56:46.523Z,38.60
2018-08-03T11:59:14.592Z,38.90
2018-08-03T12:01:42.660Z,38.50
2018-08-03T12:04:10.759Z,38.70
2018-08-03T12:06:38.875Z,38.80
2018-08-03T12:09:07.444Z,38.50
2018-08-03T12:11:35.553Z,37.80
2018-08-03T12:14:03.626Z,37.20
2018-08-03T12:16:31.736Z,36.60
2018-08-03T12:18:59.926Z,37.20
2018-08-03T12:21:28.004Z,37.80
2018-08-03T12:23:56.075Z,37.90
2018-08-03T12:26:24.120Z,38.40
2018-08-03T12:28:52.238Z,38.80
2018-08-03T12:31:20.356Z,39.20
2018-08-03T12:33:48.410Z,39.80
2018-08-03T12:36:16.470Z,39.80
2018-08-03T12:38:44.520Z,39.80
2018-08-03T12:41:12.562Z,39.10
2018-08-03T12:43:40.693Z,38.00
2018-08-03T12:46:08.786Z,38.60
2018-08-03T12:48:36.840Z,39.60
2018-08-03T12:51:05.092Z,39.90
2018-08-03T12:53:33.185Z,40.10
2018-08-03T12:56:01.305Z,40.20
2018-08-03T12:58:29.377Z,40.30
2018-08-03T13:00:57.515Z,40.00
2018-08-03T13:03:25.612Z,40.00
2018-08-03T13:05:53.706Z,40.20
2018-08-03T13:08:21.925Z,40.00
2018-08-03T13:10:49.893Z,40.80
2018-08-03T13:13:18.114Z,40.60
2018-08-03T13:15:46.221Z,39.40
2018-08-03T13:18:14.296Z,38.50
2018-08-03T13:20:42.448Z,37.60
2018-08-03T13:23:10.538Z,37.10
2018-08-03T13:25:38.620Z,37.00
2018-08-03T13:28:06.740Z,36.30
2018-08-03T13:30:34.765Z,36.40
2018-08-03T13:33:02.928Z,36.40
2018-08-03T13:35:30.964Z,37.10
2018-08-03T13:37:59.078Z,38.30
2018-08-03T13:40:27.160Z,39.00
2018-08-03T13:42:55.324Z,39.20
2018-08-03T13:45:29.939Z,39.40
2018-08-03T22:16:50.855Z,27.00
2018-08-03T22:19:19.032Z,27.20
2018-08-03T22:21:47.180Z,27.30
2018-08-03T22:24:15.303Z,27.40
2018-08-03T22:26:43.436Z,27.40
2018-08-03T22:29:11.592Z,27.50
2018-08-03T22:31:39.659Z,27.60
2018-08-03T22:34:07.781Z,27.60
2018-08-03T22:36:35.924Z,27.70
2018-08-03T22:39:05.435Z,27.60
2018-08-03T22:41:33.495Z,27.70
2018-08-03T22:44:01.576Z,27.70
2018-08-03T22:46:29.681Z,27.70
2018-08-03T22:48:57.802Z,27.70
2018-08-03T22:51:25.937Z,27.70
2018-08-03T22:53:54.030Z,27.70
2018-08-03T22:56:22.209Z,27.70
2018-08-03T22:58:50.336Z,27.70
2018-08-03T23:01:18.500Z,27.60
2018-08-03T23:03:46.720Z,27.60
2018-08-03T23:06:14.847Z,27.60
2018-08-03T23:08:42.994Z,27.60
2018-08-03T23:11:11.128Z,27.60
2018-08-03T23:13:39.317Z,27.60
2018-08-03T23:16:07.448Z,27.60
2018-08-03T23:18:35.654Z,27.60
2018-08-03T23:21:03.743Z,27.50
2018-08-03T23:23:31.864Z,27.50
2018-08-03T23:26:00.040Z,27.50
2018-08-03T23:28:28.164Z,27.50
2018-08-03T23:30:56.206Z,27.50
2018-08-03T23:33:24.376Z,27.50
2018-08-03T23:35:52.559Z,27.40
2018-08-03T23:38:20.769Z,27.40
2018-08-03T23:40:48.838Z,27.40
2018-08-03T23:43:16.984Z,27.30
2018-08-03T23:45:45.166Z,27.30
2018-08-03T23:48:13.272Z,27.30
2018-08-03T23:50:41.354Z,27.30
2018-08-03T23:53:09.444Z,27.20
2018-08-03T23:55:37.616Z,27.20
2018-08-03T23:58:05.861Z,27.20
